Time;durP1;ratioP1;P1;durP2;ratioP2;P2;SDS_P1;SDS_P2;PMS_P1;PMS_P2;Temp;Humidity;BMP_temperature;BMP_pressure;BME280_temperature;BME280_humidity;BME280_pressure;Samples;Min_cycle;Max_cycle;Signal;HPM_P1;HPM_P2
2020/12/05 00:02:25;;;;;;;13.15;4.45;;;;;;;1.15;92.75;99142.19;5092847;28;20027;-74
2020/12/05 00:04:50;;;;;;;12.10;4.32;;;;;;;1.11;92.93;99144.97;5089917;28;20038;-74
2020/12/05 00:07:15;;;;;;;12.38;4.85;;;;;;;1.14;92.93;99147.47;5091406;28;20511;-73
2020/12/05 00:09:41;;;;;;;12.63;4.75;;;;;;;1.09;93.03;99155.41;5102356;28;20023;-74
2020/12/05 00:12:09;;;;;;;9.77;4.47;;;;;;;1.23;92.71;99152.38;5097466;28;20022;-74
2020/12/05 00:14:34;;;;;;;7.43;3.80;;;;;;;1.24;92.72;99151.47;5092702;28;20048;-73
2020/12/05 00:16:59;;;;;;;9.02;4.03;;;;;;;1.23;92.80;99154.97;5097111;28;20023;-74
2020/12/05 00:19:25;;;;;;;7.45;3.90;;;;;;;1.22;93.22;99153.28;5095864;28;20043;-73
2020/12/05 00:21:54;;;;;;;9.05;4.78;;;;;;;1.28;92.78;99161.72;5096272;28;20019;-73
2020/12/05 00:24:20;;;;;;;8.15;4.35;;;;;;;1.23;92.67;99163.63;5090164;28;20019;-74
2020/12/05 00:26:49;;;;;;;9.50;4.22;;;;;;;1.33;92.74;99164.16;5079944;28;20115;-73
2020/12/05 00:29:15;;;;;;;11.40;4.57;;;;;;;1.32;92.59;99169.44;5090868;28;20051;-73
2020/12/05 00:31:41;;;;;;;6.30;3.67;;;;;;;1.30;92.90;99172.06;5095568;28;20051;-73
2020/12/05 00:34:06;;;;;;;10.82;3.92;;;;;;;1.29;92.77;99175.59;5091469;28;20396;-73
2020/12/05 00:36:31;;;;;;;6.78;3.60;;;;;;;1.38;92.45;99183.09;5096016;28;20032;-73
2020/12/05 00:38:56;;;;;;;10.40;4.35;;;;;;;1.42;92.23;99181.25;5092391;28;20020;-73
2020/12/05 00:41:22;;;;;;;12.00;4.22;;;;;;;1.32;92.51;99192.88;5095259;28;20019;-74
2020/12/05 00:43:47;;;;;;;11.27;4.05;;;;;;;1.34;92.63;99188.44;5094426;28;20024;-74
2020/12/05 00:46:12;;;;;;;17.42;4.18;;;;;;;1.37;92.60;99196.16;5094509;28;20024;-71
2020/12/05 00:48:38;;;;;;;7.22;3.80;;;;;;;1.34;92.66;99201.47;5097411;28;20505;-71
2020/12/05 00:51:03;;;;;;;10.82;3.88;;;;;;;1.39;92.53;99203.00;5091903;28;20037;-71
2020/12/05 00:53:28;;;;;;;8.00;3.85;;;;;;;1.36;92.73;99210.09;5097274;28;20032;-71
2020/12/05 00:55:53;;;;;;;7.80;3.53;;;;;;;1.37;92.59;99212.63;5094161;28;20028;-71
2020/12/05 00:58:19;;;;;;;7.18;4.20;;;;;;;1.34;92.55;99209.28;5095618;28;20051;-71
2020/12/05 01:00:44;;;;;;;6.90;4.07;;;;;;;1.35;92.59;99214.41;5093915;28;20032;-71
2020/12/05 01:03:09;;;;;;;7.18;3.90;;;;;;;1.37;92.62;99217.00;5087106;28;20446;-72
2020/12/05 01:05:36;;;;;;;9.13;4.55;;;;;;;1.43;92.57;99224.59;5090829;28;20445;-71
2020/12/05 01:08:03;;;;;;;6.47;3.90;;;;;;;1.37;92.57;99233.47;5089421;28;20099;-72
2020/12/05 01:10:29;;;;;;;6.25;4.03;;;;;;;1.39;92.79;99238.59;5097251;28;20032;-72
2020/12/05 01:12:55;;;;;;;11.13;4.40;;;;;;;1.41;92.67;99237.66;5096983;28;20047;-72
2020/12/05 01:15:20;;;;;;;9.57;5.65;;;;;;;1.35;92.80;99237.84;5094323;28;20692;-73
2020/12/05 01:17:45;;;;;;;6.47;3.63;;;;;;;1.25;93.27;99241.63;5094219;28;20031;-73
2020/12/05 01:20:11;;;;;;;11.77;4.22;;;;;;;1.32;92.96;99243.16;5093368;28;20031;-73
2020/12/05 01:22:36;;;;;;;9.10;5.05;;;;;;;1.30;93.42;99247.56;5092839;28;20378;-72
2020/12/05 01:25:02;;;;;;;8.13;4.28;;;;;;;1.31;93.30;99254.50;5097723;28;20059;-72
2020/12/05 01:27:27;;;;;;;9.65;4.13;;;;;;;1.27;93.49;99253.72;5094140;28;20020;-72
2020/12/05 01:29:53;;;;;;;10.15;4.10;;;;;;;1.27;93.31;99260.69;5100743;28;20031;-72
2020/12/05 01:32:18;;;;;;;8.85;4.00;;;;;;;1.23;93.44;99264.28;5090110;28;20038;-72
2020/12/05 01:34:43;;;;;;;10.20;3.85;;;;;;;1.17;94.03;99269.69;5092289;28;20419;-72
2020/12/05 01:37:09;;;;;;;13.25;5.15;;;;;;;1.08;94.33;99260.41;5092322;28;20071;-72
2020/12/05 01:39:35;;;;;;;13.48;5.57;;;;;;;1.10;94.26;99271.59;5092234;28;20063;-72
2020/12/05 01:42:01;;;;;;;8.52;4.03;;;;;;;1.17;94.13;99265.31;5090824;28;20088;-72
2020/12/05 01:44:26;;;;;;;9.15;4.32;;;;;;;1.16;94.15;99265.38;5092273;28;20058;-72
2020/12/05 01:46:52;;;;;;;10.90;3.65;;;;;;;1.03;94.25;99270.94;5086356;28;20035;-72
2020/12/05 01:49:20;;;;;;;10.10;5.35;;;;;;;0.98;94.65;99274.59;5098487;28;20023;-72
2020/12/05 01:51:46;;;;;;;14.82;4.30;;;;;;;1.10;94.41;99276.81;5095029;28;20508;-72
2020/12/05 01:54:12;;;;;;;9.15;3.97;;;;;;;1.18;94.06;99284.38;5098415;28;20043;-72
2020/12/05 01:56:38;;;;;;;7.03;4.20;;;;;;;1.18;93.65;99282.63;5079237;28;20116;-72
2020/12/05 01:59:03;;;;;;;11.63;4.45;;;;;;;1.01;93.91;99283.16;5093063;28;20519;-72
2020/12/05 02:01:29;;;;;;;9.07;4.22;;;;;;;0.87;94.66;99284.47;5096497;28;20046;-72
2020/12/05 02:03:57;;;;;;;7.43;4.63;;;;;;;0.85;95.19;99286.25;5092208;28;20039;-72
2020/12/05 02:06:31;;;;;;;11.82;4.72;;;;;;;0.68;95.50;99281.56;5093068;28;20038;-73
2020/12/05 02:09:04;;;;;;;8.05;4.90;;;;;;;0.57;96.04;99286.22;5096945;28;20051;-73
2020/12/05 02:11:37;;;;;;;10.43;4.85;;;;;;;0.43;96.33;99292.63;5095181;28;20447;-72
2020/12/05 02:14:07;;;;;;;12.50;5.22;;;;;;;0.43;96.94;99291.78;5093418;28;20074;-73
2020/12/05 02:16:33;;;;;;;8.63;4.65;;;;;;;0.35;97.03;99297.22;5095691;28;20489;-73
2020/12/05 02:19:01;;;;;;;8.68;4.85;;;;;;;0.34;97.21;99300.69;5093499;28;20028;-72
2020/12/05 02:21:28;;;;;;;9.65;4.72;;;;;;;0.28;97.48;99295.66;5090817;28;20031;-73
2020/12/05 02:23:56;;;;;;;6.78;4.88;;;;;;;0.30;97.22;99298.22;5092658;28;20020;-73
2020/12/05 02:26:23;;;;;;;11.85;5.40;;;;;;;0.16;97.28;99293.41;5094948;28;20027;-73
2020/12/05 02:28:48;;;;;;;9.30;5.28;;;;;;;0.16;97.46;99294.25;5095801;28;20402;-73
2020/12/05 02:31:15;;;;;;;14.35;4.55;;;;;;;0.27;97.48;99299.16;5097498;28;20020;-73
2020/12/05 02:33:41;;;;;;;14.52;5.10;;;;;;;0.25;97.41;99301.81;5087876;28;20658;-73
2020/12/05 02:36:07;;;;;;;8.82;4.88;;;;;;;0.36;97.10;99301.53;5090538;28;20031;-73
2020/12/05 02:38:39;;;;;;;9.55;5.35;;;;;;;0.20;97.27;99297.59;5090542;28;20042;-73
2020/12/05 02:41:04;;;;;;;11.60;5.07;;;;;;;0.12;97.53;99295.22;5092038;28;20028;-73
2020/12/05 02:43:29;;;;;;;17.73;5.43;;;;;;;0.08;97.62;99288.41;5089122;28;20024;-73
2020/12/05 02:45:55;;;;;;;6.60;4.07;;;;;;;0.03;97.91;99281.63;5095641;28;20028;-73
2020/12/05 02:48:20;;;;;;;11.65;4.95;;;;;;;-0.03;98.23;99274.84;5090748;28;20171;-74
2020/12/05 02:50:45;;;;;;;7.97;5.07;;;;;;;0.04;97.86;99276.38;5096106;28;20024;-74
2020/12/05 02:53:11;;;;;;;11.45;5.80;;;;;;;0.08;97.65;99275.41;5094776;28;20088;-74
2020/12/05 02:55:36;;;;;;;9.25;5.25;;;;;;;0.10;97.76;99273.66;5095183;28;20129;-73
2020/12/05 02:58:01;;;;;;;9.75;4.75;;;;;;;0.23;97.72;99281.94;5093182;28;20024;-74
2020/12/05 03:06:41;;;;;;;16.17;6.40;;;;;;;0.50;96.39;99289.00;5093964;28;20066;-72
2020/12/05 03:09:08;;;;;;;9.82;4.75;;;;;;;0.67;96.18;99292.84;5101622;28;20429;-72
2020/12/05 03:11:34;;;;;;;15.35;4.90;;;;;;;0.66;95.94;99286.81;5091665;28;20037;-72
2020/12/05 03:13:59;;;;;;;12.07;4.57;;;;;;;0.72;95.64;99294.41;5103153;28;20036;-72
2020/12/05 03:16:24;;;;;;;6.80;3.97;;;;;;;0.88;95.22;99302.63;5092618;28;20124;-73
2020/12/05 03:18:50;;;;;;;7.43;4.18;;;;;;;0.88;94.81;99301.78;5102886;28;20110;-72
2020/12/05 03:21:16;;;;;;;7.55;4.22;;;;;;;0.95;94.48;99300.69;5100399;28;20031;-72
2020/12/05 03:23:45;;;;;;;7.82;4.00;;;;;;;0.99;94.24;99308.34;5099869;28;20114;-72
2020/12/05 03:26:11;;;;;;;6.40;4.10;;;;;;;0.91;94.38;99314.72;5091605;28;20422;-72
2020/12/05 03:28:37;;;;;;;7.60;4.13;;;;;;;0.89;94.72;99316.47;5095452;27;20088;-72
2020/12/05 03:31:02;;;;;;;10.75;4.25;;;;;;;0.87;94.68;99308.72;5096737;28;20031;-72
2020/12/05 03:33:27;;;;;;;7.93;3.80;;;;;;;0.95;94.37;99311.94;5098201;28;20027;-72
2020/12/05 03:35:52;;;;;;;12.02;4.22;;;;;;;0.84;94.47;99316.63;5091476;28;20025;-72
2020/12/05 03:38:18;;;;;;;6.60;4.05;;;;;;;0.85;94.75;99313.09;5097624;28;20564;-72
2020/12/05 03:40:43;;;;;;;14.02;4.50;;;;;;;0.75;94.90;99311.66;5096092;28;20030;-73
2020/12/05 03:43:08;;;;;;;7.63;4.47;;;;;;;0.91;94.78;99304.31;5099383;28;20553;-73
2020/12/05 03:45:33;;;;;;;10.95;4.10;;;;;;;0.93;94.69;99303.34;5092469;28;20032;-73
2020/12/05 03:47:59;;;;;;;8.55;4.43;;;;;;;0.93;94.58;99302.50;5095589;28;20032;-73
2020/12/05 03:50:24;;;;;;;9.13;4.53;;;;;;;0.87;94.83;99306.13;5099342;28;20020;-73
2020/12/05 03:52:49;;;;;;;6.53;3.92;;;;;;;0.80;95.03;99308.94;5081043;28;20130;-73
2020/12/05 03:55:14;;;;;;;5.35;3.45;;;;;;;0.75;95.03;99311.66;5095707;28;20044;-73
2020/12/05 03:57:40;;;;;;;9.60;4.38;;;;;;;0.65;95.47;99307.63;5094835;28;20056;-73
2020/12/05 04:00:05;;;;;;;7.75;3.88;;;;;;;0.76;95.09;99308.19;5092851;28;20032;-73
2020/12/05 04:02:30;;;;;;;10.55;4.28;;;;;;;0.58;95.62;99303.50;5092483;28;20112;-73
2020/12/05 04:04:56;;;;;;;11.88;4.82;;;;;;;0.45;96.10;99300.38;5094576;28;20024;-73
2020/12/05 04:07:21;;;;;;;12.02;4.43;;;;;;;0.38;96.41;99307.50;5092023;28;20031;-73
2020/12/05 04:09:46;;;;;;;7.70;4.30;;;;;;;0.22;96.69;99308.81;5095649;28;20081;-73
2020/12/05 04:12:11;;;;;;;11.55;4.80;;;;;;;0.15;97.24;99308.16;5094346;28;20028;-73
2020/12/05 04:14:37;;;;;;;12.27;4.32;;;;;;;0.02;97.45;99318.88;5096217;28;20127;-73
2020/12/05 04:17:02;;;;;;;9.52;4.20;;;;;;;0.06;97.97;99313.59;5102848;28;20481;-73
2020/12/05 04:19:27;;;;;;;9.23;5.18;;;;;;;0.07;98.13;99315.28;5092726;28;20028;-74
2020/12/05 04:21:53;;;;;;;15.05;5.15;;;;;;;0.01;98.08;99314.59;5094682;28;20038;-74
2020/12/05 04:24:18;;;;;;;14.88;5.43;;;;;;;0.01;98.48;99319.78;5093718;28;20032;-73
2020/12/05 04:26:43;;;;;;;11.90;5.32;;;;;;;0.07;98.29;99320.47;5095398;28;20019;-73
2020/12/05 04:29:08;;;;;;;8.98;5.28;;;;;;;0.17;97.91;99326.28;5096161;28;20016;-73
2020/12/05 04:31:34;;;;;;;7.97;5.00;;;;;;;0.17;97.98;99321.94;5098180;28;20413;-73
2020/12/05 04:33:59;;;;;;;14.05;5.95;;;;;;;0.29;97.68;99315.56;5091172;28;20032;-73
2020/12/05 04:36:24;;;;;;;11.13;5.25;;;;;;;0.22;97.54;99316.63;5093120;28;20028;-73
2020/12/05 04:38:49;;;;;;;12.02;5.13;;;;;;;0.25;97.60;99322.59;5098169;28;20477;-73
2020/12/05 04:41:15;;;;;;;9.48;5.65;;;;;;;0.31;97.56;99315.53;5089860;28;20051;-73
2020/12/05 04:43:41;;;;;;;7.40;4.78;;;;;;;0.51;96.78;99306.28;5093590;28;20032;-71
2020/12/05 04:46:06;;;;;;;15.32;6.22;;;;;;;0.46;96.74;99308.16;5098628;28;20028;-71
2020/12/05 04:48:33;;;;;;;9.95;5.20;;;;;;;0.66;96.26;99311.97;5099936;28;20019;-71
2020/12/05 04:51:02;;;;;;;7.50;4.35;;;;;;;0.76;95.93;99319.44;5093926;28;20028;-71
2020/12/05 04:53:27;;;;;;;6.95;4.80;;;;;;;0.78;95.78;99324.59;5096796;28;20024;-72
2020/12/05 04:55:58;;;;;;;10.10;4.90;;;;;;;0.82;95.55;99330.56;5089493;28;20035;-72
2020/12/05 04:58:24;;;;;;;10.85;5.18;;;;;;;0.91;95.36;99320.75;5100993;28;20170;-72
2020/12/05 05:00:53;;;;;;;7.13;4.65;;;;;;;0.92;94.97;99314.66;5091394;28;20028;-72
2020/12/05 05:03:21;;;;;;;9.93;4.15;;;;;;;0.91;94.65;99315.56;5086681;28;20060;-72
2020/12/05 05:05:46;;;;;;;13.30;4.47;;;;;;;0.93;94.79;99320.69;5099677;28;20043;-72
2020/12/05 05:08:12;;;;;;;8.52;4.28;;;;;;;0.97;94.85;99324.94;5095976;28;20480;-72
2020/12/05 05:10:39;;;;;;;5.72;3.40;;;;;;;0.95;94.82;99327.53;5098221;28;20024;-72
2020/12/05 05:13:12;;;;;;;7.40;4.43;;;;;;;1.14;94.32;99340.03;5094160;28;20031;-72
2020/12/05 05:15:39;;;;;;;13.00;4.93;;;;;;;1.19;94.05;99344.19;5098978;28;20114;-71
2020/12/05 05:18:04;;;;;;;6.70;4.13;;;;;;;1.19;93.89;99353.75;5094173;28;20397;-71
2020/12/05 05:20:35;;;;;;;11.30;6.47;;;;;;;1.22;93.48;99349.31;5095552;28;20039;-70
2020/12/05 05:23:13;;;;;;;10.20;4.72;;;;;;;1.23;93.53;99350.16;5096089;28;20054;-69
2020/12/05 05:25:47;;;;;;;9.38;3.83;;;;;;;1.26;93.33;99357.91;5098152;28;20046;-69
2020/12/05 05:28:21;;;;;;;11.60;4.93;;;;;;;1.25;93.18;99358.75;5094052;28;20046;-70
2020/12/05 05:31:03;;;;;;;13.48;5.05;;;;;;;1.26;93.31;99357.91;5100263;28;20023;-71
2020/12/05 05:33:46;;;;;;;6.28;4.65;;;;;;;1.25;93.28;99362.22;5094138;28;20023;-71
2020/12/05 05:36:26;;;;;;;7.72;4.15;;;;;;;1.21;93.26;99365.00;5093931;28;20044;-71
2020/12/05 05:38:58;;;;;;;8.93;4.90;;;;;;;1.15;93.78;99370.34;5093369;28;20024;-71
2020/12/05 05:41:24;;;;;;;7.10;4.40;;;;;;;1.11;93.45;99363.56;5089453;28;20107;-72
2020/12/05 05:44:00;;;;;;;8.50;4.72;;;;;;;1.20;93.28;99379.72;5093643;28;20072;-71
2020/12/05 05:46:26;;;;;;;;;;;;;;;1.00;94.10;99369.03;5097813;28;20019;-72
2020/12/05 05:48:51;;;;;;;9.40;4.72;;;;;;;0.94;94.31;99380.47;5095376;28;20545;-72
2020/12/05 05:51:17;;;;;;;9.82;4.10;;;;;;;0.96;94.44;99390.88;5101511;28;20127;-72
2020/12/05 05:53:42;;;;;;;8.55;4.45;;;;;;;1.07;94.22;99396.63;5094132;28;20030;-72
2020/12/05 05:56:11;;;;;;;9.90;5.35;;;;;;;1.06;93.82;99394.91;5093766;28;20028;-72
2020/12/05 05:58:37;;;;;;;6.50;4.57;;;;;;;1.04;93.69;99402.75;5095076;28;20402;-72
2020/12/05 06:01:02;;;;;;;12.38;4.28;;;;;;;1.06;93.73;99399.25;5094064;28;20027;-72
2020/12/05 06:03:28;;;;;;;9.63;4.80;;;;;;;1.04;93.58;99401.88;5093262;28;20485;-73
2020/12/05 06:05:57;;;;;;;7.97;5.40;;;;;;;1.08;93.42;99405.25;5093477;28;20596;-73
2020/12/05 06:08:25;;;;;;;8.18;5.00;;;;;;;1.10;93.16;99403.47;5093009;28;20508;-73
2020/12/05 06:10:55;;;;;;;8.02;4.93;;;;;;;1.03;93.69;99408.00;5090214;28;20489;-73
2020/12/05 06:13:24;;;;;;;9.10;5.55;;;;;;;1.00;93.81;99403.75;5095841;28;20069;-72
2020/12/05 06:15:50;;;;;;;9.55;5.57;;;;;;;1.04;93.62;99409.69;5087291;28;20120;-72
2020/12/05 06:18:15;;;;;;;10.18;6.30;;;;;;;1.04;93.61;99417.50;5094971;28;20102;-72
2020/12/05 06:20:43;;;;;;;11.10;5.65;;;;;;;1.08;93.62;99415.69;5099837;28;20034;-71
2020/12/05 06:23:17;;;;;;;8.55;5.80;;;;;;;1.03;93.94;99418.41;5094446;28;20032;-71
2020/12/05 06:25:49;;;;;;;9.23;5.22;;;;;;;1.11;93.95;99429.47;5097761;28;20028;-71
2020/12/05 06:28:15;;;;;;;12.40;5.88;;;;;;;1.18;93.44;99427.53;5089680;28;20764;-71
2020/12/05 06:30:45;;;;;;;11.45;6.07;;;;;;;1.27;93.25;99433.31;5094768;28;20035;-72
2020/12/05 06:33:10;;;;;;;11.02;5.57;;;;;;;1.28;93.28;99439.38;5092727;28;20043;-72
2020/12/05 06:35:36;;;;;;;10.55;5.25;;;;;;;1.25;93.66;99447.25;5093008;28;20035;-72
2020/12/05 06:38:03;;;;;;;9.27;5.85;;;;;;;1.32;93.28;99437.53;5103313;28;20028;-72
2020/12/05 06:40:38;;;;;;;11.13;5.30;;;;;;;1.29;93.31;99426.31;5092794;28;20055;-72
2020/12/05 06:43:10;;;;;;;10.52;5.75;;;;;;;1.33;93.31;99431.44;5095949;28;20043;-72
2020/12/05 06:45:38;;;;;;;8.30;5.05;;;;;;;1.24;93.53;99438.59;5095497;28;20091;-72
2020/12/05 06:48:30;;;;;;;10.95;5.05;;;;;;;1.26;93.60;99441.19;5100561;28;20039;-72
2020/12/05 06:50:55;;;;;;;10.82;5.82;;;;;;;1.27;93.57;99446.34;5092649;28;20399;-72
2020/12/05 06:53:29;;;;;;;10.40;6.45;;;;;;;1.26;93.52;99462.00;5100858;28;20028;-72
2020/12/05 06:55:55;;;;;;;11.77;6.22;;;;;;;1.27;93.45;99459.34;5100480;28;20396;-72
2020/12/05 06:58:25;;;;;;;9.75;5.75;;;;;;;1.33;93.31;99470.47;5093641;28;20027;-72
2020/12/05 07:00:51;;;;;;;10.65;6.20;;;;;;;1.36;93.49;99479.06;5089474;28;20032;-72
2020/12/05 07:03:24;;;;;;;17.70;6.15;;;;;;;1.39;93.28;99478.13;5099153;28;20032;-74
2020/12/05 07:05:49;;;;;;;9.27;5.30;;;;;;;1.40;93.26;99472.00;5098623;28;20457;-73
2020/12/05 07:08:30;;;;;;;14.95;6.43;;;;;;;1.38;93.11;99482.47;5127601;27;20118;-73
2020/12/05 07:10:59;;;;;;;9.75;5.88;;;;;;;1.41;93.39;99487.59;5095054;28;20108;-73
2020/12/05 07:13:38;;;;;;;9.65;6.93;;;;;;;1.38;93.43;99492.88;5098561;28;20032;-73
2020/12/05 07:16:18;;;;;;;11.55;6.25;;;;;;;1.37;93.70;99501.59;5095759;28;20106;-73
2020/12/05 07:18:45;;;;;;;11.65;6.72;;;;;;;1.40;93.75;99498.88;5097019;28;20028;-72
2020/12/05 07:21:11;;;;;;;16.27;7.70;;;;;;;1.38;93.81;99508.50;5099805;28;20032;-72
2020/12/05 07:23:37;;;;;;;10.43;6.32;;;;;;;1.36;94.01;99512.06;5098442;28;20028;-73
2020/12/05 07:26:04;;;;;;;11.38;6.78;;;;;;;1.46;93.61;99522.16;5099844;28;20039;-73
2020/12/05 07:28:29;;;;;;;8.90;6.63;;;;;;;1.52;93.66;99522.00;5095306;28;20156;-73
2020/12/05 07:30:54;;;;;;;13.65;6.82;;;;;;;1.51;93.69;99527.25;5094779;28;20020;-72
2020/12/05 07:33:21;;;;;;;16.95;7.22;;;;;;;1.58;93.45;99533.13;5095958;28;20032;-73
2020/12/05 07:36:07;;;;;;;13.73;7.40;;;;;;;1.70;92.96;99537.97;5097484;28;20026;-72
2020/12/05 07:38:35;;;;;;;13.65;7.28;;;;;;;1.63;93.45;99544.28;5099336;28;20016;-72
2020/12/05 07:41:12;;;;;;;13.13;7.18;;;;;;;1.61;93.35;99548.66;5094114;28;20137;-72
2020/12/05 07:43:37;;;;;;;7.60;6.43;;;;;;;1.66;93.27;99558.06;5090304;28;20028;-73
2020/12/05 07:46:06;;;;;;;11.35;6.95;;;;;;;1.58;93.27;99553.97;5097023;28;20027;-72
2020/12/05 07:48:32;;;;;;;12.10;7.38;;;;;;;1.56;93.85;99569.66;5093079;28;20561;-72
2020/12/05 07:50:57;;;;;;;11.98;7.20;;;;;;;1.51;93.80;99567.16;5094879;28;20116;-73
2020/12/05 07:53:30;;;;;;;11.20;6.60;;;;;;;1.46;93.92;99574.25;5098284;28;20061;-73
2020/12/05 07:55:56;;;;;;;14.23;8.13;;;;;;;1.46;94.14;99574.25;5101319;28;20020;-71
2020/12/05 07:58:22;;;;;;;10.20;7.55;;;;;;;1.46;94.28;99583.81;5095481;28;20023;-72
2020/12/05 08:00:48;;;;;;;11.90;7.85;;;;;;;1.34;94.36;99574.56;5099703;28;20099;-72
2020/12/05 08:03:49;;;;;;;11.60;6.55;;;;;;;1.38;94.50;99584.00;5092159;28;20481;-72
2020/12/05 08:06:24;;;;;;;10.43;6.57;;;;;;;1.49;94.26;99583.72;5094565;28;20506;-72
2020/12/05 08:08:55;;;;;;;12.63;7.50;;;;;;;1.50;94.14;99585.41;5092042;28;20044;-72
2020/12/05 08:11:21;;;;;;;11.65;8.05;;;;;;;1.45;94.20;99589.88;5098261;28;20108;-72
2020/12/05 08:13:47;;;;;;;12.73;8.65;;;;;;;1.51;94.10;99588.00;5096950;28;20118;-72
2020/12/05 08:16:16;;;;;;;12.05;7.57;;;;;;;1.54;93.92;99594.84;5096650;28;20517;-72
2020/12/05 08:18:43;;;;;;;12.98;7.55;;;;;;;1.54;93.98;99597.47;5094983;28;20039;-73
2020/12/05 08:21:08;;;;;;;8.73;6.82;;;;;;;1.60;93.81;99604.25;5097076;28;20043;-73
2020/12/05 08:23:37;;;;;;;13.23;7.13;;;;;;;1.65;93.87;99613.63;5093338;28;20034;-72
2020/12/05 08:26:07;;;;;;;11.43;8.05;;;;;;;1.60;93.95;99612.06;5095182;28;20028;-73
2020/12/05 08:28:39;;;;;;;13.90;8.10;;;;;;;1.59;93.87;99610.34;5101368;28;20495;-72
2020/12/05 08:31:09;;;;;;;10.73;7.50;;;;;;;1.64;93.90;99619.75;5091584;28;20036;-73
2020/12/05 08:33:45;;;;;;;13.90;7.60;;;;;;;1.81;93.47;99619.31;5098099;28;20031;-73
2020/12/05 08:36:17;;;;;;;12.43;7.65;;;;;;;1.89;93.26;99635.56;5098361;28;20042;-73
2020/12/05 08:38:42;;;;;;;12.80;7.38;;;;;;;1.96;92.99;99636.25;5094681;28;20032;-73
2020/12/05 08:41:08;;;;;;;12.73;7.93;;;;;;;1.93;92.90;99623.31;5095548;28;20031;-72
2020/12/05 08:43:34;;;;;;;12.90;9.07;;;;;;;2.11;92.75;99640.16;5094971;28;20669;-73
2020/12/05 08:46:00;;;;;;;9.15;6.60;;;;;;;2.29;91.97;99637.00;5085251;28;20028;-73
2020/12/05 08:48:25;;;;;;;11.85;7.47;;;;;;;2.42;91.53;99632.28;5094866;28;20031;-73
2020/12/05 08:50:51;;;;;;;12.90;6.82;;;;;;;2.56;90.93;99635.31;5093495;28;20489;-73
2020/12/05 08:53:21;;;;;;;8.02;5.97;;;;;;;2.63;90.57;99634.22;5094248;28;20032;-73
2020/12/05 08:55:47;;;;;;;12.43;6.05;;;;;;;2.78;89.88;99638.13;5091289;28;20753;-72
2020/12/05 08:58:13;;;;;;;9.65;5.88;;;;;;;2.96;89.32;99644.50;5094175;28;20044;-74
2020/12/05 09:00:38;;;;;;;8.68;5.60;;;;;;;3.18;88.37;99648.13;5091217;28;20056;-74
2020/12/05 09:03:17;;;;;;;10.00;5.13;;;;;;;5.26;79.91;99647.34;5072889;28;20076;-73
2020/12/05 09:05:45;;;;;;;8.52;5.53;;;;;;;6.87;73.99;99635.75;5091860;28;20028;-74
2020/12/05 09:08:19;;;;;;;6.72;4.55;;;;;;;7.25;71.77;99636.50;5096933;28;20093;-72
2020/12/05 09:10:45;;;;;;;9.80;5.47;;;;;;;7.09;72.09;99636.41;5094902;28;20024;-73
2020/12/05 09:13:10;;;;;;;10.05;5.38;;;;;;;6.96;72.98;99645.81;5088176;28;20359;-73
2020/12/05 09:15:35;;;;;;;10.73;5.88;;;;;;;7.22;71.97;99644.53;5125644;27;20044;-73
2020/12/05 09:18:01;;;;;;;7.93;4.78;;;;;;;7.89;69.58;99649.00;5090502;28;20081;-73
2020/12/05 09:20:27;;;;;;;7.93;5.78;;;;;;;7.08;71.72;99660.13;5092531;28;20101;-73
2020/12/05 09:22:57;;;;;;;6.30;3.58;;;;;;;7.16;71.58;99663.22;5095283;28;20024;-73
2020/12/05 09:25:31;;;;;;;6.63;4.53;;;;;;;7.45;70.61;99669.69;5096871;28;20060;-73
2020/12/05 09:27:58;;;;;;;7.30;4.40;;;;;;;7.22;70.93;99662.94;5089812;28;20028;-73
2020/12/05 09:30:26;;;;;;;6.45;4.63;;;;;;;8.04;68.75;99668.41;5093687;28;20493;-73
2020/12/05 09:32:53;;;;;;;9.93;4.70;;;;;;;7.62;69.17;99672.28;5089767;28;20032;-73
2020/12/05 09:35:20;;;;;;;8.75;4.03;;;;;;;7.99;67.93;99671.28;5097235;28;20389;-72
2020/12/05 09:37:46;;;;;;;7.38;3.60;;;;;;;7.81;68.60;99666.94;5088322;28;20020;-73
2020/12/05 09:40:15;;;;;;;8.23;4.05;;;;;;;8.19;67.20;99672.84;5118638;27;20067;-73
2020/12/05 09:42:42;;;;;;;5.75;3.05;;;;;;;8.45;66.14;99675.91;5092079;28;20026;-72
2020/12/05 09:45:09;;;;;;;10.82;3.83;;;;;;;8.62;66.77;99680.25;5082484;28;20024;-73
2020/12/05 09:47:34;;;;;;;5.90;3.50;;;;;;;8.18;67.21;99689.59;5088263;28;20315;-73
2020/12/05 09:50:00;;;;;;;6.28;3.40;;;;;;;8.47;66.52;99701.19;5093087;28;20549;-72
2020/12/05 09:52:25;;;;;;;5.68;3.60;;;;;;;8.93;65.42;99703.94;5092485;28;20520;-74
2020/12/05 09:54:52;;;;;;;7.45;3.65;;;;;;;8.56;65.92;99698.09;5093210;28;20023;-74
2020/12/05 09:57:18;;;;;;;5.72;3.95;;;;;;;8.73;65.81;99705.06;5085145;28;20024;-73
2020/12/05 09:59:44;;;;;;;6.70;3.45;;;;;;;9.23;64.26;99698.75;5091601;28;20039;-73
2020/12/05 10:02:10;;;;;;;5.97;3.17;;;;;;;8.67;64.90;99686.94;5096510;28;20405;-73
2020/12/05 10:04:35;;;;;;;6.57;2.97;;;;;;;9.02;64.73;99687.63;5087999;28;20020;-73
2020/12/05 10:07:01;;;;;;;7.03;3.65;;;;;;;9.37;64.29;99683.94;5092912;28;20515;-73
2020/12/05 10:09:26;;;;;;;8.60;3.88;;;;;;;8.51;64.89;99694.00;5092259;28;20020;-72
2020/12/05 10:11:51;;;;;;;6.63;3.85;;;;;;;8.30;65.84;99704.72;5092828;28;20057;-74
2020/12/05 10:14:17;;;;;;;7.70;3.10;;;;;;;7.79;67.64;99703.88;5091755;28;20049;-73
2020/12/05 10:16:42;;;;;;;6.47;3.45;;;;;;;8.39;65.98;99707.84;5100739;28;20028;-74
2020/12/05 10:19:07;;;;;;;4.82;3.22;;;;;;;7.56;68.16;99701.53;5095533;28;20028;-72
2020/12/05 10:21:33;;;;;;;3.92;2.92;;;;;;;7.59;68.66;99692.66;5094467;28;20031;-75
2020/12/05 10:23:58;;;;;;;5.45;3.17;;;;;;;7.73;67.72;99691.03;5072651;28;20057;-71
2020/12/05 10:26:23;;;;;;;5.78;3.38;;;;;;;8.61;66.59;99692.56;5087140;28;20103;-73
2020/12/05 10:28:49;;;;;;;6.97;3.17;;;;;;;8.09;67.19;99689.22;5129291;27;20023;-73
2020/12/05 10:31:14;;;;;;;3.95;2.75;;;;;;;7.99;67.02;99691.47;5096429;28;20412;-73
2020/12/05 10:33:40;;;;;;;4.75;3.28;;;;;;;7.93;67.49;99691.75;5093782;28;20024;-73
2020/12/05 10:36:05;;;;;;;4.63;2.90;;;;;;;7.94;66.79;99689.06;5094349;28;20031;-74
2020/12/05 10:38:31;;;;;;;7.88;3.28;;;;;;;8.25;66.36;99690.94;5088532;28;21348;-73
2020/12/05 10:40:56;;;;;;;7.18;2.97;;;;;;;8.80;65.46;99697.69;5092646;28;20112;-74
2020/12/05 10:43:22;;;;;;;5.70;2.78;;;;;;;7.96;66.19;99691.63;5101112;28;20499;-71
2020/12/05 10:45:47;;;;;;;4.18;2.53;;;;;;;7.99;66.10;99686.22;5095721;28;20077;-73
2020/12/05 10:48:12;;;;;;;8.93;4.07;;;;;;;7.96;66.23;99695.09;5093636;28;20032;-73
2020/12/05 10:50:38;;;;;;;5.63;3.25;;;;;;;8.21;65.41;99697.28;5091173;28;20017;-73
2020/12/05 10:53:03;;;;;;;6.70;3.88;;;;;;;8.25;65.04;99703.25;5093932;28;20032;-73
2020/12/05 10:55:28;;;;;;;6.55;2.28;;;;;;;8.25;64.68;99700.63;5096494;28;20027;-73
2020/12/05 10:57:54;;;;;;;7.78;3.42;;;;;;;8.63;63.99;99700.38;5070461;28;20077;-73
2020/12/05 11:00:19;;;;;;;6.85;2.55;;;;;;;8.31;64.80;99705.56;5092693;28;20035;-73
2020/12/05 11:02:44;;;;;;;11.15;2.58;;;;;;;7.79;66.47;99701.25;5091014;28;20482;-72
2020/12/05 11:05:09;;;;;;;8.63;3.00;;;;;;;7.11;68.02;99709.91;5069665;28;20024;-72
2020/12/05 11:07:35;;;;;;;7.85;2.40;;;;;;;7.58;67.11;99707.59;5092663;28;20136;-72
2020/12/05 11:10:00;;;;;;;6.25;2.60;;;;;;;6.53;69.77;99710.88;5070087;28;20445;-73
2020/12/05 11:12:25;;;;;;;4.22;2.60;;;;;;;6.00;72.57;99710.63;5087443;28;20020;-73
2020/12/05 11:14:50;;;;;;;5.45;2.20;;;;;;;6.06;71.85;99705.97;5091275;28;20043;-73
2020/12/05 11:17:16;;;;;;;5.70;2.80;;;;;;;6.73;70.40;99718.69;5085770;28;20056;-74
2020/12/05 11:19:41;;;;;;;6.40;3.83;;;;;;;7.15;68.75;99719.34;5090535;28;20032;-74
2020/12/05 11:22:06;;;;;;;7.75;2.85;;;;;;;8.08;66.03;99717.28;5088342;28;20461;-74
2020/12/05 11:24:31;;;;;;;6.50;2.67;;;;;;;7.75;66.80;99720.72;5088710;28;20418;-72
2020/12/05 11:26:57;;;;;;;9.00;3.10;;;;;;;7.94;66.42;99722.44;5075828;28;20031;-73
2020/12/05 11:29:22;;;;;;;4.53;2.88;;;;;;;7.74;66.68;99724.28;5089318;28;20398;-73
2020/12/05 11:31:47;;;;;;;6.72;2.50;;;;;;;7.12;68.41;99722.94;5095958;28;20039;-73
2020/12/05 11:34:13;;;;;;;5.28;2.60;;;;;;;6.12;72.28;99720.56;5092737;28;20101;-73
2020/12/05 11:36:43;;;;;;;7.28;2.70;;;;;;;6.08;72.95;99730.38;5095288;28;20200;-73
2020/12/05 11:39:08;;;;;;;11.38;2.45;;;;;;;6.10;72.52;99735.53;5093701;28;20047;-74
2020/12/05 11:41:33;;;;;;;3.90;2.63;;;;;;;6.29;71.91;99733.81;5101189;28;20067;-74
2020/12/05 11:43:59;;;;;;;9.07;2.85;;;;;;;6.39;72.31;99737.72;5100539;28;20016;-74
2020/12/05 11:46:24;;;;;;;6.82;3.20;;;;;;;6.46;72.34;99746.19;5086603;28;20035;-74